createdAt,value
2022-09-23T00:01:33.014Z,95105.06
2022-09-23T00:04:02.255Z,95106.28
2022-09-23T00:06:32.365Z,95101.28
2022-09-23T00:09:01.071Z,95107.09
2022-09-23T00:11:30.468Z,95094.59
2022-09-23T00:14:01.053Z,95095.47
2022-09-23T00:16:32.846Z,95099.53
2022-09-23T00:19:02.262Z,95092.09
2022-09-23T00:21:32.521Z,95096.16
2022-09-23T00:24:01.324Z,95089.06
2022-09-23T00:26:30.172Z,95095.50
2022-09-23T00:28:58.984Z,95093.72
2022-09-23T00:31:28.763Z,95099.19
2022-09-23T00:33:59.790Z,95091.09
2022-09-23T00:36:30.262Z,95090.47
2022-09-23T00:39:00.694Z,95093.53
2022-09-23T00:41:29.459Z,95089.72
2022-09-23T00:44:00.133Z,95082.84
2022-09-23T00:46:37.307Z,95084.06
2022-09-23T00:49:10.302Z,95088.50
2022-09-23T00:51:43.534Z,95082.03
2022-09-23T00:54:13.391Z,95093.63
2022-09-23T00:56:42.464Z,95083.75
2022-09-23T00:59:11.838Z,95082.94
2022-09-23T01:01:40.759Z,95078.53
2022-09-23T01:04:10.032Z,95078.94
2022-09-23T01:06:38.666Z,95079.53
2022-09-23T01:09:07.407Z,95080.56
2022-09-23T01:11:44.816Z,95082.72
2022-09-23T01:14:32.505Z,95083.16
2022-09-23T01:17:08.653Z,95086.78
2022-09-23T01:20:01.701Z,95090.03
2022-09-23T01:22:39.424Z,95086.19
2022-09-23T01:25:37.748Z,95086.19
2022-09-23T01:28:33.444Z,95084.16
2022-09-23T01:31:09.453Z,95089.41
2022-09-23T01:33:44.738Z,95091.44
2022-09-23T01:36:23.867Z,95100.34
2022-09-23T01:38:59.759Z,95102.38
2022-09-23T01:41:50.573Z,95103.38
2022-09-23T01:44:24.684Z,95096.72
2022-09-23T01:46:58.082Z,95096.50
2022-09-23T01:49:32.194Z,95101.38
2022-09-23T01:52:08.148Z,95105.81
2022-09-23T01:54:40.006Z,95095.13
2022-09-23T01:57:13.229Z,95095.94
2022-09-23T01:59:44.703Z,95095.97
2022-09-23T02:02:20.053Z,95094.75
2022-09-23T02:04:54.386Z,95096.81
2022-09-23T02:07:28.725Z,95101.66
2022-09-23T02:10:03.683Z,95096.81
2022-09-23T02:12:36.309Z,95098.84
2022-09-23T02:15:09.896Z,95107.31
2022-09-23T02:17:47.537Z,95101.63
2022-09-23T02:20:21.846Z,95109.72
2022-09-23T02:22:57.947Z,95093.53
2022-09-23T02:25:34.135Z,95105.03
2022-09-23T02:28:10.488Z,95101.59
2022-09-23T02:30:49.150Z,95105.66
2022-09-23T02:33:24.897Z,95106.44
2022-09-23T02:35:56.933Z,95112.50
2022-09-23T02:38:34.968Z,95111.50
2022-09-23T02:41:11.627Z,95111.50
2022-09-23T02:43:49.018Z,95110.47
2022-09-23T02:46:18.897Z,95107.03
2022-09-23T02:48:53.484Z,95110.63
2022-09-23T02:51:24.528Z,95115.09
2022-09-23T02:53:56.442Z,95112.00
2022-09-23T02:56:25.448Z,95113.22
2022-09-23T02:58:56.361Z,95114.00
2022-09-23T03:01:39.366Z,95114.59
2022-09-23T03:04:17.396Z,95110.88
2022-09-23T03:06:58.320Z,95119.53
2022-09-23T03:09:33.205Z,95113.25
2022-09-23T03:12:13.983Z,95117.66
2022-09-23T03:14:50.661Z,95114.41
2022-09-23T03:17:27.751Z,95130.97
2022-09-23T03:20:04.129Z,95123.81
2022-09-23T03:22:37.543Z,95129.25
2022-09-23T03:25:10.677Z,95122.91
2022-09-23T03:27:41.988Z,95118.63
2022-09-23T03:30:13.147Z,95123.09
2022-09-23T03:32:47.485Z,95123.69
2022-09-23T03:35:17.879Z,95127.69
2022-09-23T03:37:54.461Z,95121.38
2022-09-23T03:40:27.989Z,95124.97
2022-09-23T03:42:58.300Z,95127.00
2022-09-23T03:45:32.518Z,95125.09
2022-09-23T03:48:01.759Z,95128.53
2022-09-23T03:50:31.916Z,95130.53
2022-09-23T03:53:01.335Z,95130.97
2022-09-23T03:55:30.056Z,95131.72
2022-09-23T03:58:00.391Z,95135.44
2022-09-23T04:00:29.041Z,95139.41
2022-09-23T04:02:57.774Z,95131.13
2022-09-23T04:05:26.559Z,95136.78
2022-09-23T04:07:56.901Z,95139.19
2022-09-23T04:10:25.737Z,95138.97
2022-09-23T04:12:54.638Z,95132.88
2022-09-23T04:15:23.443Z,95132.06
2022-09-23T04:17:52.238Z,95131.00
2022-09-23T04:20:20.892Z,95133.56
2022-09-23T04:22:49.579Z,95133.50
2022-09-23T04:25:19.913Z,95133.94
2022-09-23T04:27:48.692Z,95136.06
2022-09-23T04:30:18.896Z,95141.78
2022-09-23T04:32:47.708Z,95138.56
2022-09-23T04:35:16.580Z,95139.09
2022-09-23T04:37:45.451Z,95133.38
2022-09-23T04:40:14.357Z,95138.41
2022-09-23T04:42:44.635Z,95146.28
2022-09-23T04:45:13.477Z,95147.53
2022-09-23T04:47:42.293Z,95148.97
2022-09-23T04:50:11.513Z,95150.69
2022-09-23T04:52:40.356Z,95149.66
2022-09-23T04:55:11.408Z,95154.50
2022-09-23T04:57:40.247Z,95161.31
2022-09-23T05:00:12.574Z,95154.19
2022-09-23T05:02:44.489Z,95141.28
2022-09-23T05:05:13.659Z,95148.19
2022-09-23T05:07:43.206Z,95141.50
2022-09-23T05:10:12.030Z,95142.00
2022-09-23T05:12:40.896Z,95147.22
2022-09-23T05:15:11.354Z,95153.88
2022-09-23T05:17:40.163Z,95156.38
2022-09-23T05:20:09.811Z,95150.63
2022-09-23T05:22:38.776Z,95155.44
2022-09-23T05:25:08.122Z,95153.06
2022-09-23T05:27:36.860Z,95152.84
2022-09-23T05:30:08.034Z,95150.97
2022-09-23T05:32:38.232Z,95153.75
2022-09-23T05:35:08.156Z,95158.66
2022-09-23T05:37:39.072Z,95160.06
2022-09-23T05:40:08.198Z,95164.69
2022-09-23T05:42:37.033Z,95162.50
2022-09-23T05:45:07.776Z,95165.47
2022-09-23T05:47:38.446Z,95168.41
2022-09-23T05:50:08.046Z,95174.56
2022-09-23T05:52:36.795Z,95162.03
2022-09-23T05:55:06.176Z,95161.56
2022-09-23T05:57:34.875Z,95176.47
2022-09-23T06:00:04.597Z,95179.47
2022-09-23T06:02:42.093Z,95180.09
2022-09-23T06:05:12.063Z,95188.41
2022-09-23T06:07:40.893Z,95188.25
2022-09-23T06:10:10.155Z,95191.00
2022-09-23T06:12:39.649Z,95191.22
2022-09-23T06:15:09.484Z,95189.47
2022-09-23T06:17:38.289Z,95188.91
2022-09-23T06:20:09.715Z,95187.53
2022-09-23T06:22:40.045Z,95191.28
2022-09-23T06:25:10.130Z,95189.69
2022-09-23T06:27:39.413Z,95191.06
2022-09-23T06:30:09.412Z,95192.44
2022-09-23T06:32:38.360Z,95187.47
2022-09-23T06:35:20.719Z,95183.38
2022-09-23T06:37:53.613Z,95186.19
2022-09-23T06:40:23.495Z,95182.69
2022-09-23T06:42:59.771Z,95197.47
2022-09-23T06:45:29.389Z,95186.09
2022-09-23T06:47:59.178Z,95192.19
2022-09-23T06:50:31.055Z,95200.19
2022-09-23T06:52:59.759Z,95202.19
2022-09-23T06:55:29.100Z,95204.91
2022-09-23T06:58:00.015Z,95198.81
2022-09-23T07:00:29.381Z,95199.84
2022-09-23T07:02:58.072Z,95206.28
2022-09-23T07:05:28.332Z,95212.84
2022-09-23T07:07:57.196Z,95220.00
2022-09-23T07:10:29.303Z,95220.56
2022-09-23T07:12:58.088Z,95214.69
2022-09-23T07:15:26.937Z,95217.22
2022-09-23T07:17:55.804Z,95225.16
2022-09-23T07:20:24.754Z,95225.63
2022-09-23T07:22:54.956Z,95223.31
2022-09-23T07:25:24.481Z,95225.19
2022-09-23T07:27:53.176Z,95220.03
2022-09-23T07:30:25.387Z,95215.53
2022-09-23T07:32:54.847Z,95228.44
2022-09-23T07:35:23.778Z,95231.56
2022-09-23T07:37:52.561Z,95225.31
2022-09-23T07:40:23.797Z,95232.78
2022-09-23T07:42:52.934Z,95217.78
2022-09-23T07:45:22.708Z,95233.72
2022-09-23T07:47:51.774Z,95218.63
2022-09-23T07:50:20.708Z,95233.41
2022-09-23T07:52:49.872Z,95233.81
2022-09-23T07:55:20.998Z,95230.81
2022-09-23T07:57:51.439Z,95226.88
2022-09-23T08:00:21.356Z,95237.91
2022-09-23T08:02:53.128Z,95236.84
2022-09-23T08:05:22.893Z,95231.16
2022-09-23T08:07:51.636Z,95226.75
2022-09-23T08:10:21.240Z,95225.91
2022-09-23T08:12:51.673Z,95226.47
2022-09-23T08:15:20.560Z,95230.78
2022-09-23T08:17:49.517Z,95230.34
2022-09-23T08:20:32.148Z,95228.66
2022-09-23T08:23:00.821Z,95232.56
2022-09-23T08:25:32.034Z,95232.00
2022-09-23T08:28:03.352Z,95234.44
2022-09-23T08:30:32.298Z,95240.44
2022-09-23T08:33:00.973Z,95229.25
2022-09-23T08:35:30.642Z,95232.47
2022-09-23T08:37:59.719Z,95225.84
2022-09-23T08:40:28.548Z,95228.53
2022-09-23T08:42:57.669Z,95226.63
2022-09-23T08:45:29.194Z,95225.06
2022-09-23T08:48:10.802Z,95232.53
2022-09-23T08:50:43.900Z,95224.19
2022-09-23T08:53:19.251Z,95226.00
2022-09-23T08:55:51.015Z,95222.31
2022-09-23T08:58:35.311Z,95216.44
2022-09-23T09:01:14.233Z,95212.44
2022-09-23T09:03:49.920Z,95219.41
2022-09-23T09:06:22.533Z,95209.28
2022-09-23T09:08:57.167Z,95211.13
2022-09-23T09:11:32.416Z,95216.47
2022-09-23T09:14:07.151Z,95218.06
2022-09-23T09:16:59.414Z,95210.53
2022-09-23T09:19:53.578Z,95219.13
2022-09-23T09:22:25.064Z,95228.19
2022-09-23T09:24:56.791Z,95219.53
2022-09-23T09:27:25.770Z,95221.78
2022-09-23T09:29:56.739Z,95215.88
2022-09-23T09:32:38.390Z,95212.53
2022-09-23T09:35:19.853Z,95218.66
2022-09-23T09:37:49.533Z,95212.13
2022-09-23T09:40:20.467Z,95213.31
2022-09-23T09:42:51.801Z,95211.72
2022-09-23T09:45:30.303Z,95216.34
2022-09-23T09:48:11.209Z,95215.44
2022-09-23T09:50:49.294Z,95209.63
2022-09-23T09:53:24.200Z,95212.47
2022-09-23T09:56:05.972Z,95211.94
2022-09-23T09:58:41.827Z,95197.47
2022-09-23T10:01:11.059Z,95201.03
2022-09-23T10:03:44.594Z,95198.44
2022-09-23T10:06:23.803Z,95206.16
2022-09-23T10:09:14.047Z,95201.56
2022-09-23T10:11:42.964Z,95201.19
2022-09-23T10:14:18.926Z,95192.44
2022-09-23T10:16:49.131Z,95180.88
2022-09-23T10:19:27.314Z,95197.13
2022-09-23T10:22:00.369Z,95189.84
2022-09-23T10:24:32.419Z,95191.56
2022-09-23T10:27:04.578Z,95189.63
2022-09-23T10:29:38.610Z,95187.91
2022-09-23T10:32:27.968Z,95180.19
2022-09-23T10:35:02.980Z,95177.19
2022-09-23T10:37:36.676Z,95174.16
2022-09-23T10:40:34.467Z,95169.63
2022-09-23T10:43:42.235Z,95170.56
2022-09-23T10:46:36.782Z,95165.16
2022-09-23T10:49:43.277Z,95157.41
2022-09-23T10:52:28.994Z,95164.81
2022-09-23T10:55:09.089Z,95156.09
2022-09-23T10:57:55.843Z,95157.31
2022-09-23T11:00:30.001Z,95161.09
2022-09-23T11:03:19.843Z,95162.91
2022-09-23T11:06:00.999Z,95162.66
2022-09-23T11:08:41.557Z,95160.50
2022-09-23T11:11:22.005Z,95154.53
2022-09-23T11:14:06.256Z,95151.81
2022-09-23T11:16:47.473Z,95143.38
2022-09-23T11:19:32.503Z,95137.13
2022-09-23T11:22:23.046Z,95141.53
2022-09-23T11:25:09.206Z,95146.38
2022-09-23T11:27:55.065Z,95133.94
2022-09-23T11:30:23.962Z,95148.44
2022-09-23T11:33:17.577Z,95152.41
2022-09-23T11:35:50.313Z,95143.03
2022-09-23T11:38:26.137Z,95140.88
2022-09-23T11:41:02.538Z,95137.09
2022-09-23T11:43:39.955Z,95133.03
2022-09-23T11:46:23.830Z,95138.97
2022-09-23T11:48:59.160Z,95133.72
2022-09-23T11:51:33.738Z,95127.00
2022-09-23T11:54:07.422Z,95129.13
2022-09-23T11:56:46.479Z,95119.09
2022-09-23T11:59:35.204Z,95121.47
2022-09-23T12:02:20.974Z,95116.88
2022-09-23T12:04:58.028Z,95118.06
2022-09-23T12:07:34.857Z,95120.91
2022-09-23T12:10:07.691Z,95129.72
2022-09-23T12:12:47.930Z,95125.88
2022-09-23T12:15:28.359Z,95122.38
2022-09-23T12:18:23.434Z,95113.28
2022-09-23T12:21:06.610Z,95116.88
2022-09-23T12:24:03.341Z,95111.47
2022-09-23T12:26:34.262Z,95114.78
2022-09-23T12:29:07.538Z,95112.09
2022-09-23T12:31:42.023Z,95106.94
2022-09-23T12:34:26.175Z,95102.09
2022-09-23T12:36:55.601Z,95101.03
2022-09-23T12:39:31.740Z,95098.53
2022-09-23T12:42:03.578Z,95085.50
2022-09-23T12:44:39.422Z,95098.13
2022-09-23T12:47:40.335Z,95093.66
2022-09-23T12:50:48.952Z,95085.50
2022-09-23T12:53:57.280Z,95090.72
2022-09-23T12:56:51.059Z,95082.13
2022-09-23T12:59:27.751Z,95073.00
2022-09-23T13:01:57.926Z,95082.59
2022-09-23T13:04:53.469Z,95076.06
2022-09-23T13:07:30.218Z,95082.72
2022-09-23T13:10:08.425Z,95073.72
2022-09-23T13:12:40.664Z,95077.75
2022-09-23T13:15:20.161Z,95072.31
2022-09-23T13:17:48.980Z,95072.31
2022-09-23T13:20:38.880Z,95080.59
2022-09-23T13:23:21.658Z,95081.97
2022-09-23T13:25:52.760Z,95080.34
2022-09-23T13:28:37.012Z,95073.41
2022-09-23T13:31:14.241Z,95067.00
2022-09-23T13:33:47.673Z,95075.56
2022-09-23T13:36:18.433Z,95078.50
2022-09-23T13:38:47.512Z,95072.88
2022-09-23T13:41:19.453Z,95073.63
2022-09-23T13:43:52.188Z,95069.84
2022-09-23T13:46:24.504Z,95062.59
2022-09-23T13:48:56.054Z,95066.06
2022-09-23T13:51:30.286Z,95068.28
2022-09-23T14:12:24.549Z,95070.94
2022-09-23T14:14:54.541Z,95067.47
2022-09-23T14:17:24.366Z,95063.13
2022-09-23T14:19:53.436Z,95066.34
2022-09-23T14:22:25.746Z,95068.03
2022-09-23T14:24:57.165Z,95072.13
2022-09-23T14:27:31.534Z,95065.47
2022-09-23T14:30:03.086Z,95076.34
2022-09-23T14:32:33.569Z,95078.97
2022-09-23T14:35:20.177Z,95073.94
2022-09-23T14:38:09.446Z,95076.09
2022-09-23T14:40:50.795Z,95081.44
2022-09-23T14:43:25.295Z,95075.03
2022-09-23T14:45:56.684Z,95077.72
2022-09-23T14:48:28.075Z,95078.25
2022-09-23T14:50:59.410Z,95076.63
2022-09-23T14:53:40.528Z,95072.09
2022-09-23T14:56:15.936Z,95075.25
2022-09-23T14:58:52.561Z,95083.31
2022-09-23T15:01:34.684Z,95074.72
2022-09-23T15:04:14.040Z,95081.03
2022-09-23T15:06:48.124Z,95079.13
2022-09-23T15:09:23.823Z,95078.25
2022-09-23T15:11:54.813Z,95076.34
2022-09-23T15:14:37.644Z,95076.69
2022-09-23T15:17:16.566Z,95083.03
2022-09-23T15:19:46.690Z,95075.28
2022-09-23T15:22:16.787Z,95078.47
2022-09-23T15:24:46.747Z,95071.53
2022-09-23T15:27:29.355Z,95079.38
2022-09-23T15:30:15.405Z,95084.91
2022-09-23T15:32:45.783Z,95079.00
2022-09-23T15:35:16.633Z,95077.41
2022-09-23T15:37:47.027Z,95072.06
2022-09-23T15:40:21.113Z,95081.34
2022-09-23T15:42:51.706Z,95083.59
2022-09-23T15:45:27.914Z,95083.88
2022-09-23T15:48:00.180Z,95089.19
2022-09-23T15:50:31.496Z,95090.66
2022-09-23T15:53:00.402Z,95087.66
2022-09-23T15:55:29.326Z,95089.53
2022-09-23T15:57:58.133Z,95097.13
2022-09-23T16:00:28.701Z,95092.53
2022-09-23T16:02:57.523Z,95090.50
2022-09-23T16:05:33.691Z,95087.81
2022-09-23T16:08:08.547Z,95098.91
2022-09-23T16:10:39.045Z,95091.78
2022-09-23T16:13:11.797Z,95094.94
2022-09-23T16:15:42.423Z,95091.69
2022-09-23T16:18:12.639Z,95092.34
2022-09-23T16:20:44.629Z,95105.47
2022-09-23T16:23:34.735Z,95097.50
2022-09-23T16:26:07.525Z,95104.03
2022-09-23T16:28:36.466Z,95107.16
2022-09-23T16:31:07.600Z,95108.75
2022-09-23T16:33:36.644Z,95110.63
2022-09-23T16:36:06.426Z,95113.22
2022-09-23T16:38:35.204Z,95109.94
2022-09-23T16:41:04.201Z,95110.41
2022-09-23T16:43:39.353Z,95113.56
2022-09-23T16:46:12.445Z,95119.00
2022-09-23T16:48:41.698Z,95125.19
2022-09-23T16:51:15.865Z,95118.91
2022-09-23T16:53:44.659Z,95126.03
2022-09-23T16:56:13.752Z,95125.56
2022-09-23T16:58:42.721Z,95136.38
2022-09-23T17:01:34.716Z,95131.00
2022-09-23T17:04:03.938Z,95130.00
2022-09-23T17:06:32.761Z,95127.56
2022-09-23T17:09:01.558Z,95130.47
2022-09-23T17:11:33.954Z,95132.88
2022-09-23T17:14:02.930Z,95137.09
2022-09-23T17:16:35.119Z,95139.56
2022-09-23T17:19:08.518Z,95136.84
2022-09-23T17:21:37.627Z,95134.84
2022-09-23T17:24:07.340Z,95138.59
2022-09-23T17:26:36.380Z,95145.50
2022-09-23T17:29:05.782Z,95140.00
2022-09-23T17:31:36.395Z,95137.59
2022-09-23T17:34:05.286Z,95146.91
2022-09-23T17:36:34.218Z,95154.56
2022-09-23T17:39:03.165Z,95151.25
2022-09-23T17:41:32.100Z,95155.69
2022-09-23T17:44:01.064Z,95159.03
2022-09-23T17:46:30.310Z,95159.47
2022-09-23T17:49:00.739Z,95149.53
2022-09-23T17:51:30.063Z,95159.00
2022-09-23T17:53:59.528Z,95154.81
2022-09-23T17:56:30.166Z,95152.09
2022-09-23T17:59:02.157Z,95156.00
2022-09-23T18:01:31.878Z,95163.63
2022-09-23T18:04:05.759Z,95170.19
2022-09-23T18:06:37.277Z,95172.41
2022-09-23T18:09:07.847Z,95175.78
2022-09-23T18:11:37.992Z,95174.38
2022-09-23T18:14:08.943Z,95173.34
2022-09-23T18:16:39.699Z,95182.69
2022-09-23T18:19:13.207Z,95179.44
2022-09-23T18:21:44.300Z,95186.56
2022-09-23T18:27:02.769Z,95200.38
2022-09-23T18:29:31.706Z,95191.72
2022-09-23T18:32:00.593Z,95189.84
2022-09-23T18:34:30.913Z,95187.72
2022-09-23T18:36:59.925Z,95195.00
2022-09-23T18:39:29.622Z,95193.47
2022-09-23T18:41:58.656Z,95195.63
2022-09-23T18:44:27.516Z,95189.16
2022-09-23T18:46:56.883Z,95199.78
2022-09-23T18:49:43.792Z,95197.84
2022-09-23T18:52:14.384Z,95197.25
2022-09-23T18:54:44.244Z,95198.34
2022-09-23T18:57:14.837Z,95198.66
2022-09-23T18:59:44.547Z,95200.13
2022-09-23T19:02:13.917Z,95206.31
2022-09-23T19:04:42.922Z,95200.88
2022-09-23T19:07:12.104Z,95209.47
2022-09-23T19:09:42.269Z,95209.78
2022-09-23T19:12:11.069Z,95207.78
2022-09-23T19:14:39.773Z,95212.03
2022-09-23T19:17:08.943Z,95211.06
2022-09-23T19:19:37.902Z,95215.41
2022-09-23T19:22:07.012Z,95212.03
2022-09-23T19:24:35.848Z,95214.53
2022-09-23T19:27:06.229Z,95220.00
2022-09-23T19:29:35.187Z,95214.34
2022-09-23T19:32:04.200Z,95218.75
2022-09-23T19:34:34.916Z,95215.16
2022-09-23T19:37:04.785Z,95216.38
2022-09-23T19:39:34.843Z,95219.91
2022-09-23T19:42:04.011Z,95210.38
2022-09-23T19:44:34.419Z,95215.94
2022-09-23T19:47:03.647Z,95219.25
2022-09-23T19:49:32.544Z,95218.00
2022-09-23T19:52:01.466Z,95220.28
2022-09-23T19:54:30.348Z,95222.13
2022-09-23T19:56:59.600Z,95219.47
2022-09-23T19:59:28.551Z,95213.81
2022-09-23T20:01:58.804Z,95223.97
2022-09-23T20:04:27.981Z,95227.88
2022-09-23T20:06:56.963Z,95227.06
2022-09-23T20:09:27.913Z,95225.28
2022-09-23T20:11:57.454Z,95222.44
2022-09-23T20:14:27.254Z,95227.13
2022-09-23T20:16:56.121Z,95225.50
2022-09-23T20:19:26.380Z,95222.47
2022-09-23T20:22:08.929Z,95227.53
2022-09-23T20:24:37.768Z,95224.50
2022-09-23T20:27:11.311Z,95236.09
2022-09-23T20:29:40.063Z,95242.97
2022-09-23T20:32:09.473Z,95235.06
2022-09-23T20:34:40.868Z,95248.47
2022-09-23T20:37:10.967Z,95246.44
2022-09-23T20:39:39.783Z,95249.28
2022-09-23T20:42:09.452Z,95247.69
2022-09-23T20:44:38.190Z,95247.69
2022-09-23T20:47:07.225Z,95252.38
2022-09-23T20:49:36.668Z,95242.50
2022-09-23T20:52:06.806Z,95249.03
2022-09-23T20:54:38.963Z,95246.81
2022-09-23T20:57:07.953Z,95246.47
2022-09-23T20:59:36.600Z,95249.09
2022-09-23T21:02:06.623Z,95243.66
2022-09-23T21:04:35.564Z,95248.75
2022-09-23T21:07:04.409Z,95255.88
2022-09-23T21:09:34.640Z,95246.81
2022-09-23T21:12:03.945Z,95242.13
2022-09-23T21:14:33.025Z,95243.16
2022-09-23T21:17:01.684Z,95252.50
2022-09-23T21:19:30.562Z,95256.38
2022-09-23T21:21:59.208Z,95252.94
2022-09-23T21:27:19.328Z,95262.09
2022-09-23T21:29:48.018Z,95261.06
2022-09-23T21:32:16.949Z,95258.25
2022-09-23T21:34:45.623Z,95253.63
2022-09-23T21:37:14.219Z,95252.19
2022-09-23T21:40:02.925Z,95254.63
2022-09-23T21:42:34.132Z,95260.50
2022-09-23T21:45:02.943Z,95253.63
2022-09-23T21:47:32.528Z,95253.66
2022-09-23T21:50:01.459Z,95253.03
2022-09-23T21:52:31.637Z,95250.59
2022-09-23T21:55:00.286Z,95260.53
2022-09-23T21:57:31.592Z,95245.94
2022-09-23T22:00:01.870Z,95241.50
2022-09-23T22:02:34.322Z,95248.75
2022-09-23T22:05:03.023Z,95255.28
2022-09-23T22:07:32.159Z,95249.41
2022-09-23T22:10:00.827Z,95242.09
2022-09-23T22:12:29.711Z,95246.97
2022-09-23T22:14:58.485Z,95251.63
2022-09-23T22:17:30.339Z,95245.13
2022-09-23T22:19:59.503Z,95249.00
2022-09-23T22:22:28.157Z,95256.47
2022-09-23T22:24:56.921Z,95253.03
2022-09-23T22:27:27.402Z,95259.28
2022-09-23T22:30:09.843Z,95253.84
2022-09-23T22:32:43.818Z,95252.03
2022-09-23T22:35:16.815Z,95256.25
2022-09-23T22:37:45.729Z,95259.72
2022-09-23T22:40:16.259Z,95259.09
2022-09-23T22:42:45.282Z,95261.94
2022-09-23T22:45:14.415Z,95253.41
2022-09-23T22:47:46.004Z,95250.38
2022-09-23T22:50:15.725Z,95246.75
2022-09-23T22:52:44.957Z,95251.59
2022-09-23T22:55:13.904Z,95258.88
2022-09-23T22:57:42.852Z,95256.66
2022-09-23T23:00:13.461Z,95260.50
2022-09-23T23:02:43.687Z,95256.88
2022-09-23T23:05:14.643Z,95258.50
2022-09-23T23:07:43.279Z,95258.69
2022-09-23T23:10:11.948Z,95252.41
2022-09-23T23:12:41.769Z,95256.03
2022-09-23T23:15:12.903Z,95255.41
2022-09-23T23:17:43.779Z,95257.44
2022-09-23T23:20:13.948Z,95258.84
2022-09-23T23:22:42.568Z,95252.16
2022-09-23T23:25:11.606Z,95251.69
2022-09-23T23:27:40.238Z,95256.94
2022-09-23T23:30:10.218Z,95246.88
2022-09-23T23:32:38.895Z,95246.28
2022-09-23T23:35:08.679Z,95250.28
2022-09-23T23:37:38.683Z,95246.84
2022-09-23T23:40:08.624Z,95245.63
2022-09-23T23:42:38.939Z,95241.59
2022-09-23T23:45:08.971Z,95240.97
2022-09-23T23:47:37.683Z,95241.03
2022-09-23T23:50:07.089Z,95237.78
2022-09-23T23:52:35.797Z,95228.84
2022-09-23T23:55:09.937Z,95234.09
2022-09-23T23:57:39.483Z,95235.72
